sensor_id;sensor_type;location;lat;lon;timestamp;P1;durP1;ratioP1;P2;durP2;ratioP2
14141;SDS011;7151;52.246;4.820;2024-02-21T00:00:55;7.50;;;2.40;;
14141;SDS011;7151;52.246;4.820;2024-02-21T00:03:20;5.50;;;2.03;;
14141;SDS011;7151;52.246;4.820;2024-02-21T00:05:46;4.90;;;2.33;;
14141;SDS011;7151;52.246;4.820;2024-02-21T00:08:12;4.97;;;1.90;;
14141;SDS011;7151;52.246;4.820;2024-02-21T00:10:38;4.90;;;2.20;;
14141;SDS011;7151;52.246;4.820;2024-02-21T00:13:03;7.70;;;2.07;;
14141;SDS011;7151;52.246;4.820;2024-02-21T00:15:29;8.27;;;2.07;;
14141;SDS011;7151;52.246;4.820;2024-02-21T00:17:54;4.90;;;1.57;;
14141;SDS011;7151;52.246;4.820;2024-02-21T00:20:20;4.87;;;2.13;;
14141;SDS011;7151;52.246;4.820;2024-02-21T00:22:46;11.20;;;2.70;;
14141;SDS011;7151;52.246;4.820;2024-02-21T00:25:11;7.33;;;2.30;;
14141;SDS011;7151;52.246;4.820;2024-02-21T00:27:37;12.20;;;2.70;;
14141;SDS011;7151;52.246;4.820;2024-02-21T00:30:04;6.00;;;1.83;;
14141;SDS011;7151;52.246;4.820;2024-02-21T00:32:30;9.07;;;2.80;;
14141;SDS011;7151;52.246;4.820;2024-02-21T00:34:57;4.03;;;1.77;;
14141;SDS011;7151;52.246;4.820;2024-02-21T00:37:22;7.60;;;2.10;;
14141;SDS011;7151;52.246;4.820;2024-02-21T00:39:48;6.03;;;1.83;;
14141;SDS011;7151;52.246;4.820;2024-02-21T00:42:14;7.73;;;2.10;;
14141;SDS011;7151;52.246;4.820;2024-02-21T00:44:39;10.17;;;2.03;;
14141;SDS011;7151;52.246;4.820;2024-02-21T00:47:05;8.40;;;2.60;;
14141;SDS011;7151;52.246;4.820;2024-02-21T00:49:30;8.07;;;2.23;;
14141;SDS011;7151;52.246;4.820;2024-02-21T00:51:56;4.93;;;1.87;;
14141;SDS011;7151;52.246;4.820;2024-02-21T00:54:22;8.07;;;2.13;;
14141;SDS011;7151;52.246;4.820;2024-02-21T00:56:47;9.50;;;2.83;;
14141;SDS011;7151;52.246;4.820;2024-02-21T00:59:13;7.33;;;1.97;;
14141;SDS011;7151;52.246;4.820;2024-02-21T01:01:39;6.53;;;1.93;;
14141;SDS011;7151;52.246;4.820;2024-02-21T01:04:07;8.17;;;2.13;;
14141;SDS011;7151;52.246;4.820;2024-02-21T01:06:34;3.77;;;1.73;;
14141;SDS011;7151;52.246;4.820;2024-02-21T01:08:59;7.17;;;2.23;;
14141;SDS011;7151;52.246;4.820;2024-02-21T01:11:25;6.80;;;1.97;;
14141;SDS011;7151;52.246;4.820;2024-02-21T01:13:51;5.20;;;1.87;;
14141;SDS011;7151;52.246;4.820;2024-02-21T01:16:16;3.93;;;2.30;;
14141;SDS011;7151;52.246;4.820;2024-02-21T01:18:42;7.17;;;2.23;;
14141;SDS011;7151;52.246;4.820;2024-02-21T01:21:07;10.70;;;2.37;;
14141;SDS011;7151;52.246;4.820;2024-02-21T01:23:35;10.10;;;2.13;;
14141;SDS011;7151;52.246;4.820;2024-02-21T01:26:01;10.73;;;2.10;;
14141;SDS011;7151;52.246;4.820;2024-02-21T01:28:27;4.00;;;1.80;;
14141;SDS011;7151;52.246;4.820;2024-02-21T01:30:53;10.03;;;2.40;;
14141;SDS011;7151;52.246;4.820;2024-02-21T01:33:18;8.60;;;2.23;;
14141;SDS011;7151;52.246;4.820;2024-02-21T01:35:44;3.73;;;1.97;;
14141;SDS011;7151;52.246;4.820;2024-02-21T01:38:10;6.13;;;1.87;;
14141;SDS011;7151;52.246;4.820;2024-02-21T01:40:37;6.30;;;2.33;;
14141;SDS011;7151;52.246;4.820;2024-02-21T01:43:03;6.77;;;2.33;;
14141;SDS011;7151;52.246;4.820;2024-02-21T01:45:29;6.03;;;2.07;;
14141;SDS011;7151;52.246;4.820;2024-02-21T01:47:54;5.93;;;1.97;;
14141;SDS011;7151;52.246;4.820;2024-02-21T01:50:20;8.23;;;1.77;;
14141;SDS011;7151;52.246;4.820;2024-02-21T01:52:48;10.23;;;2.67;;
14141;SDS011;7151;52.246;4.820;2024-02-21T01:55:15;8.87;;;2.10;;
14141;SDS011;7151;52.246;4.820;2024-02-21T01:57:42;8.17;;;2.00;;
14141;SDS011;7151;52.246;4.820;2024-02-21T02:00:11;7.40;;;2.03;;
14141;SDS011;7151;52.246;4.820;2024-02-21T02:02:38;5.50;;;1.93;;
14141;SDS011;7151;52.246;4.820;2024-02-21T02:05:04;7.77;;;2.33;;
14141;SDS011;7151;52.246;4.820;2024-02-21T02:07:31;6.47;;;2.23;;
14141;SDS011;7151;52.246;4.820;2024-02-21T02:09:57;3.43;;;1.57;;
14141;SDS011;7151;52.246;4.820;2024-02-21T02:12:22;9.10;;;1.93;;
14141;SDS011;7151;52.246;4.820;2024-02-21T02:15:10;6.00;;;2.70;;
14141;SDS011;7151;52.246;4.820;2024-02-21T02:17:34;3.70;;;1.70;;
14141;SDS011;7151;52.246;4.820;2024-02-21T02:20:00;7.67;;;2.03;;
14141;SDS011;7151;52.246;4.820;2024-02-21T02:22:28;6.73;;;2.17;;
14141;SDS011;7151;52.246;4.820;2024-02-21T02:24:54;6.00;;;1.77;;
14141;SDS011;7151;52.246;4.820;2024-02-21T02:27:20;5.80;;;1.73;;
14141;SDS011;7151;52.246;4.820;2024-02-21T02:29:48;4.33;;;1.50;;
14141;SDS011;7151;52.246;4.820;2024-02-21T02:32:13;4.87;;;1.67;;
14141;SDS011;7151;52.246;4.820;2024-02-21T02:34:39;7.70;;;1.93;;
14141;SDS011;7151;52.246;4.820;2024-02-21T02:37:04;5.97;;;1.93;;
14141;SDS011;7151;52.246;4.820;2024-02-21T02:39:30;5.30;;;2.13;;
14141;SDS011;7151;52.246;4.820;2024-02-21T02:41:56;7.03;;;2.43;;
14141;SDS011;7151;52.246;4.820;2024-02-21T02:44:21;6.97;;;2.00;;
14141;SDS011;7151;52.246;4.820;2024-02-21T02:46:47;7.07;;;1.57;;
14141;SDS011;7151;52.246;4.820;2024-02-21T02:49:13;4.47;;;1.70;;
14141;SDS011;7151;52.246;4.820;2024-02-21T02:51:42;5.87;;;1.87;;
14141;SDS011;7151;52.246;4.820;2024-02-21T02:54:08;7.03;;;2.03;;
14141;SDS011;7151;52.246;4.820;2024-02-21T02:56:34;5.77;;;2.07;;
14141;SDS011;7151;52.246;4.820;2024-02-21T02:58:59;6.90;;;1.87;;
14141;SDS011;7151;52.246;4.820;2024-02-21T03:01:25;8.63;;;2.50;;
14141;SDS011;7151;52.246;4.820;2024-02-21T03:03:51;7.90;;;2.67;;
14141;SDS011;7151;52.246;4.820;2024-02-21T03:06:16;6.23;;;1.80;;
14141;SDS011;7151;52.246;4.820;2024-02-21T03:08:42;9.17;;;1.97;;
14141;SDS011;7151;52.246;4.820;2024-02-21T03:11:08;4.93;;;2.07;;
14141;SDS011;7151;52.246;4.820;2024-02-21T03:13:33;6.33;;;2.00;;
14141;SDS011;7151;52.246;4.820;2024-02-21T03:15:59;4.50;;;1.97;;
14141;SDS011;7151;52.246;4.820;2024-02-21T03:18:25;5.17;;;1.73;;
14141;SDS011;7151;52.246;4.820;2024-02-21T03:20:50;4.63;;;1.77;;
14141;SDS011;7151;52.246;4.820;2024-02-21T03:23:16;5.23;;;1.80;;
14141;SDS011;7151;52.246;4.820;2024-02-21T03:25:41;5.77;;;2.27;;
14141;SDS011;7151;52.246;4.820;2024-02-21T03:28:07;8.87;;;2.57;;
14141;SDS011;7151;52.246;4.820;2024-02-21T03:30:32;8.30;;;2.10;;
14141;SDS011;7151;52.246;4.820;2024-02-21T03:32:58;7.90;;;2.17;;
14141;SDS011;7151;52.246;4.820;2024-02-21T03:35:24;10.00;;;1.97;;
14141;SDS011;7151;52.246;4.820;2024-02-21T03:37:52;5.77;;;2.23;;
14141;SDS011;7151;52.246;4.820;2024-02-21T03:40:18;6.23;;;2.97;;
14141;SDS011;7151;52.246;4.820;2024-02-21T03:42:43;8.73;;;2.10;;
14141;SDS011;7151;52.246;4.820;2024-02-21T03:45:09;5.83;;;2.30;;
14141;SDS011;7151;52.246;4.820;2024-02-21T03:47:34;7.63;;;2.33;;
14141;SDS011;7151;52.246;4.820;2024-02-21T03:50:00;7.53;;;2.10;;
14141;SDS011;7151;52.246;4.820;2024-02-21T03:52:26;9.37;;;2.47;;
14141;SDS011;7151;52.246;4.820;2024-02-21T03:54:51;7.40;;;2.87;;
14141;SDS011;7151;52.246;4.820;2024-02-21T03:57:18;9.40;;;2.30;;
14141;SDS011;7151;52.246;4.820;2024-02-21T03:59:43;6.37;;;2.80;;
14141;SDS011;7151;52.246;4.820;2024-02-21T04:02:09;5.40;;;1.63;;
14141;SDS011;7151;52.246;4.820;2024-02-21T04:04:35;7.03;;;2.07;;
14141;SDS011;7151;52.246;4.820;2024-02-21T04:07:04;4.23;;;1.90;;
14141;SDS011;7151;52.246;4.820;2024-02-21T04:09:32;9.10;;;3.77;;
14141;SDS011;7151;52.246;4.820;2024-02-21T04:11:59;4.93;;;2.30;;
14141;SDS011;7151;52.246;4.820;2024-02-21T04:14:25;3.67;;;1.83;;
14141;SDS011;7151;52.246;4.820;2024-02-21T04:16:51;3.83;;;2.00;;
14141;SDS011;7151;52.246;4.820;2024-02-21T04:19:17;7.17;;;2.83;;
14141;SDS011;7151;52.246;4.820;2024-02-21T04:21:42;6.33;;;2.50;;
14141;SDS011;7151;52.246;4.820;2024-02-21T04:24:08;5.83;;;2.10;;
14141;SDS011;7151;52.246;4.820;2024-02-21T04:26:34;8.23;;;3.40;;
14141;SDS011;7151;52.246;4.820;2024-02-21T04:28:59;5.60;;;2.17;;
14141;SDS011;7151;52.246;4.820;2024-02-21T04:31:25;8.43;;;2.57;;
14141;SDS011;7151;52.246;4.820;2024-02-21T04:33:51;5.60;;;2.70;;
14141;SDS011;7151;52.246;4.820;2024-02-21T04:36:16;5.07;;;2.23;;
14141;SDS011;7151;52.246;4.820;2024-02-21T04:38:42;7.63;;;2.10;;
14141;SDS011;7151;52.246;4.820;2024-02-21T04:41:08;6.70;;;2.60;;
14141;SDS011;7151;52.246;4.820;2024-02-21T04:43:33;3.33;;;1.87;;
14141;SDS011;7151;52.246;4.820;2024-02-21T04:45:59;6.67;;;2.17;;
14141;SDS011;7151;52.246;4.820;2024-02-21T04:48:25;5.50;;;2.40;;
14141;SDS011;7151;52.246;4.820;2024-02-21T04:50:51;3.53;;;2.17;;
14141;SDS011;7151;52.246;4.820;2024-02-21T04:53:16;7.07;;;3.37;;
14141;SDS011;7151;52.246;4.820;2024-02-21T04:55:42;9.33;;;3.93;;
14141;SDS011;7151;52.246;4.820;2024-02-21T04:58:08;6.43;;;2.70;;
14141;SDS011;7151;52.246;4.820;2024-02-21T05:00:33;5.83;;;2.20;;
14141;SDS011;7151;52.246;4.820;2024-02-21T05:02:59;3.93;;;2.10;;
14141;SDS011;7151;52.246;4.820;2024-02-21T05:05:25;5.43;;;2.70;;
14141;SDS011;7151;52.246;4.820;2024-02-21T05:07:50;3.37;;;2.27;;
14141;SDS011;7151;52.246;4.820;2024-02-21T05:10:16;4.17;;;2.73;;
14141;SDS011;7151;52.246;4.820;2024-02-21T05:12:42;4.07;;;2.37;;
14141;SDS011;7151;52.246;4.820;2024-02-21T05:15:08;6.17;;;2.70;;
14141;SDS011;7151;52.246;4.820;2024-02-21T05:17:34;5.27;;;2.13;;
14141;SDS011;7151;52.246;4.820;2024-02-21T05:19:59;10.77;;;2.87;;
14141;SDS011;7151;52.246;4.820;2024-02-21T05:22:25;6.73;;;2.77;;
14141;SDS011;7151;52.246;4.820;2024-02-21T05:24:50;6.13;;;2.33;;
14141;SDS011;7151;52.246;4.820;2024-02-21T05:27:16;8.20;;;2.87;;
14141;SDS011;7151;52.246;4.820;2024-02-21T05:29:41;8.20;;;2.63;;
14141;SDS011;7151;52.246;4.820;2024-02-21T05:32:07;6.33;;;3.50;;
14141;SDS011;7151;52.246;4.820;2024-02-21T05:34:33;6.13;;;3.20;;
14141;SDS011;7151;52.246;4.820;2024-02-21T05:36:58;5.20;;;2.50;;
14141;SDS011;7151;52.246;4.820;2024-02-21T05:39:25;8.03;;;2.80;;
14141;SDS011;7151;52.246;4.820;2024-02-21T05:41:51;5.40;;;3.40;;
14141;SDS011;7151;52.246;4.820;2024-02-21T05:44:17;5.73;;;3.07;;
14141;SDS011;7151;52.246;4.820;2024-02-21T05:46:43;6.53;;;3.03;;
14141;SDS011;7151;52.246;4.820;2024-02-21T05:49:09;4.93;;;3.57;;
14141;SDS011;7151;52.246;4.820;2024-02-21T05:51:34;6.30;;;4.07;;
14141;SDS011;7151;52.246;4.820;2024-02-21T05:54:00;6.43;;;3.60;;
14141;SDS011;7151;52.246;4.820;2024-02-21T05:56:26;6.77;;;3.80;;
14141;SDS011;7151;52.246;4.820;2024-02-21T05:58:52;6.03;;;3.30;;
14141;SDS011;7151;52.246;4.820;2024-02-21T06:01:18;7.27;;;3.93;;
14141;SDS011;7151;52.246;4.820;2024-02-21T06:03:43;5.97;;;3.87;;
14141;SDS011;7151;52.246;4.820;2024-02-21T06:06:09;6.33;;;3.90;;
14141;SDS011;7151;52.246;4.820;2024-02-21T06:08:35;6.93;;;4.17;;
14141;SDS011;7151;52.246;4.820;2024-02-21T06:11:00;3.97;;;3.50;;
14141;SDS011;7151;52.246;4.820;2024-02-21T06:13:26;5.77;;;3.83;;
14141;SDS011;7151;52.246;4.820;2024-02-21T06:15:52;8.17;;;4.70;;
14141;SDS011;7151;52.246;4.820;2024-02-21T06:18:18;7.33;;;3.97;;
14141;SDS011;7151;52.246;4.820;2024-02-21T06:20:44;7.13;;;4.63;;
14141;SDS011;7151;52.246;4.820;2024-02-21T06:23:11;5.53;;;3.90;;
14141;SDS011;7151;52.246;4.820;2024-02-21T06:25:42;6.50;;;4.47;;
14141;SDS011;7151;52.246;4.820;2024-02-21T06:28:08;6.03;;;4.20;;
14141;SDS011;7151;52.246;4.820;2024-02-21T06:30:35;8.40;;;4.53;;
14141;SDS011;7151;52.246;4.820;2024-02-21T06:33:00;5.17;;;3.87;;
14141;SDS011;7151;52.246;4.820;2024-02-21T06:35:27;5.00;;;3.90;;
14141;SDS011;7151;52.246;4.820;2024-02-21T06:37:55;7.43;;;4.53;;
14141;SDS011;7151;52.246;4.820;2024-02-21T06:40:21;6.43;;;4.47;;
14141;SDS011;7151;52.246;4.820;2024-02-21T06:42:48;6.27;;;4.70;;
14141;SDS011;7151;52.246;4.820;2024-02-21T06:45:14;7.57;;;4.00;;
14141;SDS011;7151;52.246;4.820;2024-02-21T06:47:40;6.87;;;4.63;;
14141;SDS011;7151;52.246;4.820;2024-02-21T06:50:06;5.83;;;4.40;;
14141;SDS011;7151;52.246;4.820;2024-02-21T06:52:32;8.90;;;4.50;;
14141;SDS011;7151;52.246;4.820;2024-02-21T06:54:57;6.60;;;4.47;;
14141;SDS011;7151;52.246;4.820;2024-02-21T06:57:23;7.47;;;5.07;;
14141;SDS011;7151;52.246;4.820;2024-02-21T06:59:52;6.97;;;4.40;;
14141;SDS011;7151;52.246;4.820;2024-02-21T07:02:17;9.07;;;4.40;;
14141;SDS011;7151;52.246;4.820;2024-02-21T07:04:43;9.20;;;5.20;;
14141;SDS011;7151;52.246;4.820;2024-02-21T07:07:09;5.50;;;4.30;;
14141;SDS011;7151;52.246;4.820;2024-02-21T07:09:34;9.13;;;5.27;;
14141;SDS011;7151;52.246;4.820;2024-02-21T07:12:01;7.77;;;4.57;;
14141;SDS011;7151;52.246;4.820;2024-02-21T07:14:30;8.60;;;4.80;;
14141;SDS011;7151;52.246;4.820;2024-02-21T07:16:57;9.63;;;4.40;;
14141;SDS011;7151;52.246;4.820;2024-02-21T07:19:23;13.83;;;4.37;;
14141;SDS011;7151;52.246;4.820;2024-02-21T07:21:48;7.93;;;5.03;;
14141;SDS011;7151;52.246;4.820;2024-02-21T07:24:17;5.07;;;4.20;;
14141;SDS011;7151;52.246;4.820;2024-02-21T07:26:43;11.63;;;5.10;;
14141;SDS011;7151;52.246;4.820;2024-02-21T07:29:09;8.67;;;5.40;;
14141;SDS011;7151;52.246;4.820;2024-02-21T07:31:40;7.53;;;5.17;;
14141;SDS011;7151;52.246;4.820;2024-02-21T07:34:06;7.10;;;5.13;;
14141;SDS011;7151;52.246;4.820;2024-02-21T07:36:31;7.57;;;4.47;;
14141;SDS011;7151;52.246;4.820;2024-02-21T07:38:57;7.07;;;4.77;;
14141;SDS011;7151;52.246;4.820;2024-02-21T07:41:23;8.00;;;5.47;;
14141;SDS011;7151;52.246;4.820;2024-02-21T07:43:48;6.70;;;4.63;;
14141;SDS011;7151;52.246;4.820;2024-02-21T07:46:17;12.83;;;5.67;;
14141;SDS011;7151;52.246;4.820;2024-02-21T07:48:44;8.60;;;4.70;;
14141;SDS011;7151;52.246;4.820;2024-02-21T07:51:10;9.60;;;5.40;;
14141;SDS011;7151;52.246;4.820;2024-02-21T07:53:36;7.13;;;5.00;;
14141;SDS011;7151;52.246;4.820;2024-02-21T07:56:02;10.27;;;5.07;;
14141;SDS011;7151;52.246;4.820;2024-02-21T07:58:28;7.37;;;5.17;;
14141;SDS011;7151;52.246;4.820;2024-02-21T08:00:54;10.43;;;4.73;;
14141;SDS011;7151;52.246;4.820;2024-02-21T08:03:19;7.63;;;4.80;;
14141;SDS011;7151;52.246;4.820;2024-02-21T08:05:45;9.30;;;5.07;;
14141;SDS011;7151;52.246;4.820;2024-02-21T08:08:11;10.27;;;5.53;;
14141;SDS011;7151;52.246;4.820;2024-02-21T08:10:43;7.50;;;4.77;;
14141;SDS011;7151;52.246;4.820;2024-02-21T08:13:08;5.40;;;4.07;;
14141;SDS011;7151;52.246;4.820;2024-02-21T08:15:34;6.13;;;4.70;;
14141;SDS011;7151;52.246;4.820;2024-02-21T08:18:00;7.67;;;4.87;;
14141;SDS011;7151;52.246;4.820;2024-02-21T08:20:26;10.93;;;4.93;;
14141;SDS011;7151;52.246;4.820;2024-02-21T08:22:52;10.40;;;4.57;;
14141;SDS011;7151;52.246;4.820;2024-02-21T08:25:18;9.30;;;5.63;;
14141;SDS011;7151;52.246;4.820;2024-02-21T08:27:43;10.33;;;5.43;;
14141;SDS011;7151;52.246;4.820;2024-02-21T08:30:10;8.73;;;5.43;;
14141;SDS011;7151;52.246;4.820;2024-02-21T08:32:36;9.53;;;5.13;;
14141;SDS011;7151;52.246;4.820;2024-02-21T08:35:02;7.17;;;4.90;;
14141;SDS011;7151;52.246;4.820;2024-02-21T08:37:28;9.03;;;5.10;;
14141;SDS011;7151;52.246;4.820;2024-02-21T08:39:53;8.23;;;5.43;;
14141;SDS011;7151;52.246;4.820;2024-02-21T08:42:22;9.43;;;5.90;;
14141;SDS011;7151;52.246;4.820;2024-02-21T08:44:48;9.60;;;5.97;;
14141;SDS011;7151;52.246;4.820;2024-02-21T08:47:14;9.27;;;5.50;;
14141;SDS011;7151;52.246;4.820;2024-02-21T08:49:39;9.23;;;5.70;;
14141;SDS011;7151;52.246;4.820;2024-02-21T08:52:05;6.83;;;5.30;;
14141;SDS011;7151;52.246;4.820;2024-02-21T08:54:31;8.60;;;5.67;;
14141;SDS011;7151;52.246;4.820;2024-02-21T08:57:00;11.43;;;5.87;;
14141;SDS011;7151;52.246;4.820;2024-02-21T08:59:25;9.20;;;5.47;;
14141;SDS011;7151;52.246;4.820;2024-02-21T09:01:51;8.63;;;5.60;;
14141;SDS011;7151;52.246;4.820;2024-02-21T09:04:19;6.57;;;5.07;;
14141;SDS011;7151;52.246;4.820;2024-02-21T09:06:45;7.60;;;5.30;;
14141;SDS011;7151;52.246;4.820;2024-02-21T09:09:11;9.03;;;5.13;;
14141;SDS011;7151;52.246;4.820;2024-02-21T09:11:37;9.70;;;5.23;;
14141;SDS011;7151;52.246;4.820;2024-02-21T09:14:04;7.47;;;4.73;;
14141;SDS011;7151;52.246;4.820;2024-02-21T09:16:31;8.37;;;4.60;;
14141;SDS011;7151;52.246;4.820;2024-02-21T09:18:57;9.70;;;4.80;;
14141;SDS011;7151;52.246;4.820;2024-02-21T09:21:23;6.87;;;4.77;;
14141;SDS011;7151;52.246;4.820;2024-02-21T09:23:48;11.60;;;5.17;;
14141;SDS011;7151;52.246;4.820;2024-02-21T09:26:14;10.47;;;4.83;;
14141;SDS011;7151;52.246;4.820;2024-02-21T09:28:42;9.03;;;5.33;;
14141;SDS011;7151;52.246;4.820;2024-02-21T09:31:08;10.80;;;5.67;;
14141;SDS011;7151;52.246;4.820;2024-02-21T09:33:34;6.13;;;5.13;;
14141;SDS011;7151;52.246;4.820;2024-02-21T09:35:59;9.73;;;5.10;;
14141;SDS011;7151;52.246;4.820;2024-02-21T09:38:25;8.90;;;5.60;;
14141;SDS011;7151;52.246;4.820;2024-02-21T09:41:04;11.57;;;5.87;;
14141;SDS011;7151;52.246;4.820;2024-02-21T09:43:54;7.33;;;5.40;;
14141;SDS011;7151;52.246;4.820;2024-02-21T09:46:21;8.47;;;5.63;;
14141;SDS011;7151;52.246;4.820;2024-02-21T09:49:36;9.17;;;5.77;;
14141;SDS011;7151;52.246;4.820;2024-02-21T09:51:49;7.77;;;5.10;;
14141;SDS011;7151;52.246;4.820;2024-02-21T09:54:18;10.93;;;7.07;;
14141;SDS011;7151;52.246;4.820;2024-02-21T09:56:47;7.37;;;5.40;;
14141;SDS011;7151;52.246;4.820;2024-02-21T09:59:16;9.87;;;6.73;;
14141;SDS011;7151;52.246;4.820;2024-02-21T10:01:42;9.03;;;5.67;;
14141;SDS011;7151;52.246;4.820;2024-02-21T10:04:09;6.73;;;4.73;;
14141;SDS011;7151;52.246;4.820;2024-02-21T10:06:35;8.87;;;5.43;;
14141;SDS011;7151;52.246;4.820;2024-02-21T10:09:02;8.03;;;5.87;;
14141;SDS011;7151;52.246;4.820;2024-02-21T10:11:31;9.10;;;5.90;;
14141;SDS011;7151;52.246;4.820;2024-02-21T10:14:06;8.77;;;5.60;;
14141;SDS011;7151;52.246;4.820;2024-02-21T10:16:32;9.57;;;5.93;;
14141;SDS011;7151;52.246;4.820;2024-02-21T10:19:02;7.63;;;5.10;;
14141;SDS011;7151;52.246;4.820;2024-02-21T10:21:28;11.60;;;5.43;;
14141;SDS011;7151;52.246;4.820;2024-02-21T10:23:54;9.83;;;5.50;;
14141;SDS011;7151;52.246;4.820;2024-02-21T10:26:20;6.00;;;4.03;;
14141;SDS011;7151;52.246;4.820;2024-02-21T10:28:47;8.53;;;4.40;;
14141;SDS011;7151;52.246;4.820;2024-02-21T10:31:23;8.87;;;4.70;;
14141;SDS011;7151;52.246;4.820;2024-02-21T10:33:53;7.53;;;4.67;;
14141;SDS011;7151;52.246;4.820;2024-02-21T10:36:20;7.00;;;5.00;;
14141;SDS011;7151;52.246;4.820;2024-02-21T10:38:45;5.83;;;4.33;;
14141;SDS011;7151;52.246;4.820;2024-02-21T10:41:12;9.90;;;4.60;;
14141;SDS011;7151;52.246;4.820;2024-02-21T10:43:40;7.03;;;4.20;;
14141;SDS011;7151;52.246;4.820;2024-02-21T10:46:06;6.50;;;3.87;;
14141;SDS011;7151;52.246;4.820;2024-02-21T10:48:46;6.57;;;3.87;;
14141;SDS011;7151;52.246;4.820;2024-02-21T10:51:16;5.90;;;3.70;;
14141;SDS011;7151;52.246;4.820;2024-02-21T10:53:50;8.87;;;4.30;;
14141;SDS011;7151;52.246;4.820;2024-02-21T10:58:56;4.67;;;3.50;;
14141;SDS011;7151;52.246;4.820;2024-02-21T11:01:23;4.90;;;4.03;;
14141;SDS011;7151;52.246;4.820;2024-02-21T11:03:52;5.10;;;3.60;;
14141;SDS011;7151;52.246;4.820;2024-02-21T11:06:19;6.57;;;4.00;;
14141;SDS011;7151;52.246;4.820;2024-02-21T11:08:46;7.00;;;4.07;;
14141;SDS011;7151;52.246;4.820;2024-02-21T11:11:13;5.83;;;4.10;;
14141;SDS011;7151;52.246;4.820;2024-02-21T11:13:42;5.77;;;4.07;;
14141;SDS011;7151;52.246;4.820;2024-02-21T11:16:12;4.90;;;3.97;;
14141;SDS011;7151;52.246;4.820;2024-02-21T11:18:46;5.97;;;4.00;;
14141;SDS011;7151;52.246;4.820;2024-02-21T11:21:12;5.20;;;3.87;;
14141;SDS011;7151;52.246;4.820;2024-02-21T11:23:38;6.50;;;3.93;;
14141;SDS011;7151;52.246;4.820;2024-02-21T11:26:06;9.17;;;4.00;;
14141;SDS011;7151;52.246;4.820;2024-02-21T11:28:35;6.67;;;4.47;;
14141;SDS011;7151;52.246;4.820;2024-02-21T11:31:08;6.30;;;4.40;;
14141;SDS011;7151;52.246;4.820;2024-02-21T11:33:41;6.00;;;3.90;;
14141;SDS011;7151;52.246;4.820;2024-02-21T11:36:10;8.23;;;3.80;;
14141;SDS011;7151;52.246;4.820;2024-02-21T11:38:36;4.43;;;3.83;;
14141;SDS011;7151;52.246;4.820;2024-02-21T11:41:02;5.47;;;3.80;;
14141;SDS011;7151;52.246;4.820;2024-02-21T11:43:33;5.27;;;4.07;;
14141;SDS011;7151;52.246;4.820;2024-02-21T11:45:59;8.23;;;4.37;;
14141;SDS011;7151;52.246;4.820;2024-02-21T11:48:31;6.43;;;3.93;;
14141;SDS011;7151;52.246;4.820;2024-02-21T11:50:57;4.07;;;3.33;;
14141;SDS011;7151;52.246;4.820;2024-02-21T11:53:22;6.07;;;3.50;;
14141;SDS011;7151;52.246;4.820;2024-02-21T11:55:49;6.17;;;3.80;;
14141;SDS011;7151;52.246;4.820;2024-02-21T11:58:17;5.03;;;3.30;;
14141;SDS011;7151;52.246;4.820;2024-02-21T12:00:43;5.40;;;3.77;;
14141;SDS011;7151;52.246;4.820;2024-02-21T12:03:08;3.93;;;3.10;;
14141;SDS011;7151;52.246;4.820;2024-02-21T12:05:34;4.80;;;3.50;;
14141;SDS011;7151;52.246;4.820;2024-02-21T12:08:00;4.63;;;3.47;;
14141;SDS011;7151;52.246;4.820;2024-02-21T12:10:26;5.00;;;3.70;;
14141;SDS011;7151;52.246;4.820;2024-02-21T12:13:07;5.60;;;3.57;;
14141;SDS011;7151;52.246;4.820;2024-02-21T12:15:34;6.07;;;4.37;;
14141;SDS011;7151;52.246;4.820;2024-02-21T12:18:00;5.23;;;3.90;;
14141;SDS011;7151;52.246;4.820;2024-02-21T12:20:26;4.60;;;3.67;;
14141;SDS011;7151;52.246;4.820;2024-02-21T12:22:52;5.00;;;3.97;;
14141;SDS011;7151;52.246;4.820;2024-02-21T12:25:22;6.73;;;4.30;;
14141;SDS011;7151;52.246;4.820;2024-02-21T12:27:48;5.93;;;3.93;;
14141;SDS011;7151;52.246;4.820;2024-02-21T12:30:18;5.13;;;3.83;;
14141;SDS011;7151;52.246;4.820;2024-02-21T12:32:44;8.20;;;3.70;;
14141;SDS011;7151;52.246;4.820;2024-02-21T12:35:11;5.57;;;3.80;;
14141;SDS011;7151;52.246;4.820;2024-02-21T12:37:36;3.93;;;3.33;;
14141;SDS011;7151;52.246;4.820;2024-02-21T12:40:03;5.23;;;4.30;;
14141;SDS011;7151;52.246;4.820;2024-02-21T12:42:33;6.70;;;3.77;;
14141;SDS011;7151;52.246;4.820;2024-02-21T12:44:59;5.07;;;3.13;;
14141;SDS011;7151;52.246;4.820;2024-02-21T12:47:25;5.07;;;2.87;;
14141;SDS011;7151;52.246;4.820;2024-02-21T12:49:52;5.07;;;3.70;;
14141;SDS011;7151;52.246;4.820;2024-02-21T12:52:17;3.53;;;3.13;;
14141;SDS011;7151;52.246;4.820;2024-02-21T12:54:44;3.60;;;3.00;;
14141;SDS011;7151;52.246;4.820;2024-02-21T12:57:09;4.47;;;3.37;;
14141;SDS011;7151;52.246;4.820;2024-02-21T12:59:35;4.43;;;3.40;;
14141;SDS011;7151;52.246;4.820;2024-02-21T13:02:00;7.50;;;2.93;;
14141;SDS011;7151;52.246;4.820;2024-02-21T13:04:26;5.10;;;3.30;;
14141;SDS011;7151;52.246;4.820;2024-02-21T13:06:52;5.67;;;3.27;;
14141;SDS011;7151;52.246;4.820;2024-02-21T13:09:17;3.93;;;3.00;;
14141;SDS011;7151;52.246;4.820;2024-02-21T13:11:43;5.70;;;3.27;;
14141;SDS011;7151;52.246;4.820;2024-02-21T13:14:12;3.57;;;3.27;;
14141;SDS011;7151;52.246;4.820;2024-02-21T13:16:40;5.63;;;3.87;;
14141;SDS011;7151;52.246;4.820;2024-02-21T13:19:06;3.63;;;3.07;;
14141;SDS011;7151;52.246;4.820;2024-02-21T13:21:35;3.87;;;3.17;;
14141;SDS011;7151;52.246;4.820;2024-02-21T13:24:01;4.80;;;3.50;;
14141;SDS011;7151;52.246;4.820;2024-02-21T13:26:27;6.00;;;3.50;;
14141;SDS011;7151;52.246;4.820;2024-02-21T13:28:53;5.27;;;3.53;;
14141;SDS011;7151;52.246;4.820;2024-02-21T13:31:19;4.57;;;3.37;;
14141;SDS011;7151;52.246;4.820;2024-02-21T13:33:45;4.63;;;2.53;;
14141;SDS011;7151;52.246;4.820;2024-02-21T13:36:11;3.30;;;3.00;;
14141;SDS011;7151;52.246;4.820;2024-02-21T13:38:36;6.73;;;3.60;;
14141;SDS011;7151;52.246;4.820;2024-02-21T13:41:03;4.20;;;3.03;;
14141;SDS011;7151;52.246;4.820;2024-02-21T13:43:30;5.30;;;3.33;;
14141;SDS011;7151;52.246;4.820;2024-02-21T13:45:59;4.73;;;2.57;;
14141;SDS011;7151;52.246;4.820;2024-02-21T13:48:30;3.53;;;2.70;;
14141;SDS011;7151;52.246;4.820;2024-02-21T13:50:56;3.70;;;2.90;;
14141;SDS011;7151;52.246;4.820;2024-02-21T13:53:21;4.03;;;2.50;;
14141;SDS011;7151;52.246;4.820;2024-02-21T13:55:48;3.30;;;3.00;;
14141;SDS011;7151;52.246;4.820;2024-02-21T13:58:17;4.33;;;3.40;;
14141;SDS011;7151;52.246;4.820;2024-02-21T14:00:43;4.73;;;3.30;;
14141;SDS011;7151;52.246;4.820;2024-02-21T14:03:08;4.50;;;3.00;;
14141;SDS011;7151;52.246;4.820;2024-02-21T14:05:34;5.83;;;3.47;;
14141;SDS011;7151;52.246;4.820;2024-02-21T14:08:00;4.17;;;2.90;;
14141;SDS011;7151;52.246;4.820;2024-02-21T14:10:26;3.77;;;2.70;;
14141;SDS011;7151;52.246;4.820;2024-02-21T14:12:54;5.23;;;3.10;;
14141;SDS011;7151;52.246;4.820;2024-02-21T14:15:20;4.67;;;2.37;;
14141;SDS011;7151;52.246;4.820;2024-02-21T14:17:45;3.03;;;2.37;;
14141;SDS011;7151;52.246;4.820;2024-02-21T14:20:12;3.07;;;2.50;;
14141;SDS011;7151;52.246;4.820;2024-02-21T14:22:39;4.00;;;2.47;;
14141;SDS011;7151;52.246;4.820;2024-02-21T14:25:04;4.37;;;2.57;;
14141;SDS011;7151;52.246;4.820;2024-02-21T14:27:30;3.10;;;2.47;;
14141;SDS011;7151;52.246;4.820;2024-02-21T14:29:57;3.97;;;2.10;;
14141;SDS011;7151;52.246;4.820;2024-02-21T14:32:22;3.83;;;2.30;;
14141;SDS011;7151;52.246;4.820;2024-02-21T14:34:48;3.00;;;2.50;;
14141;SDS011;7151;52.246;4.820;2024-02-21T14:37:14;5.03;;;2.50;;
14141;SDS011;7151;52.246;4.820;2024-02-21T14:39:40;7.00;;;2.73;;
14141;SDS011;7151;52.246;4.820;2024-02-21T14:42:06;4.50;;;2.47;;
14141;SDS011;7151;52.246;4.820;2024-02-21T14:44:34;3.60;;;2.70;;
14141;SDS011;7151;52.246;4.820;2024-02-21T14:47:00;2.60;;;2.40;;
14141;SDS011;7151;52.246;4.820;2024-02-21T14:49:28;5.77;;;2.90;;
14141;SDS011;7151;52.246;4.820;2024-02-21T14:51:53;5.97;;;2.37;;
14141;SDS011;7151;52.246;4.820;2024-02-21T14:54:19;3.57;;;2.13;;
14141;SDS011;7151;52.246;4.820;2024-02-21T14:56:45;5.40;;;2.77;;
14141;SDS011;7151;52.246;4.820;2024-02-21T14:59:12;2.87;;;2.67;;